Time;durP1;ratioP1;P1;durP2;ratioP2;P2;SDS_P1;SDS_P2;PMS_P1;PMS_P2;Temp;Humidity;BMP_temperature;BMP_pressure;BME280_temperature;BME280_humidity;BME280_pressure;Samples;Min_cycle;Max_cycle;Signal;HPM_P1;HPM_P2
2023/10/22 00:01:43;;;;;;;;;;;;;;;15.61;64.70;99520.72;4941881;29;19922;-77
2023/10/22 00:04:08;;;;;;;;;;;;;;;15.59;64.79;99529.97;4946776;28;19930;-77
2023/10/22 00:06:33;;;;;;;;;;;;;;;15.57;64.51;99521.31;4949838;28;19918;-77
2023/10/22 00:08:58;;;;;;;;;;;;;;;15.55;64.77;99539.88;4957786;28;20390;-77
2023/10/22 00:11:24;;;;;;;;;;;;;;;15.56;64.75;99535.22;4946878;29;19923;-77
2023/10/22 00:13:49;;;;;;;;;;;;;;;15.57;64.62;99542.28;4935167;29;19918;-78
2023/10/22 00:16:14;;;;;;;;;;;;;;;15.56;64.60;99541.47;4935901;29;19985;-77
2023/10/22 00:18:40;;;;;;;;;;;;;;;15.54;64.66;99532.81;4964316;28;20013;-77
2023/10/22 00:21:08;;;;;;;;;;;;;;;15.54;64.98;99532.00;4946914;29;20442;-77
2023/10/22 00:23:34;;;;;;;;;;;;;;;15.55;64.72;99539.88;4942873;28;20370;-78
2023/10/22 00:25:59;;;;;;;;;;;;;;;15.55;64.96;99549.97;4937418;29;19957;-77
2023/10/22 00:28:24;;;;;;;;;;;;;;;15.55;64.61;99553.47;4952409;28;20377;-78
2023/10/22 00:30:49;;;;;;;;;;;;;;;15.55;64.59;99560.84;4952844;28;19922;-77
2023/10/22 00:33:15;;;;;;;;;;;;;;;15.54;64.87;99560.03;4948421;28;19965;-78
2023/10/22 00:35:40;;;;;;;;;;;;;;;15.55;64.78;99566.28;4937230;29;19969;-77
2023/10/22 00:38:05;;;;;;;;;;;;;;;15.55;64.55;99569.00;4956770;28;19919;-77
2023/10/22 00:40:31;;;;;;;;;;;;;;;15.54;64.73;99576.34;4939543;29;20285;-76
2023/10/22 00:42:56;;;;;;;;;;;;;;;15.56;64.47;99578.78;4947997;29;19927;-76
2023/10/22 00:45:22;;;;;;;;;;;;;;;15.55;64.59;99582.63;4951972;28;20433;-76
2023/10/22 00:47:47;;;;;;;;;;;;;;;15.54;64.71;99587.22;4934016;29;19925;-76
2023/10/22 00:50:12;;;;;;;;;;;;;;;15.55;64.58;99588.06;4951371;29;19926;-76
2023/10/22 00:52:38;;;;;;;;;;;;;;;15.55;64.82;99605.19;4937932;28;20426;-76
2023/10/22 00:55:03;;;;;;;;;;;;;;;15.54;64.52;99606.28;4943428;29;19918;-77
2023/10/22 00:57:30;;;;;;;;;;;;;;;15.54;64.88;99616.38;4954142;29;20024;-76
2023/10/22 00:59:55;;;;;;;;;;;;;;;15.53;64.86;99622.94;4952249;29;19919;-76
2023/10/22 01:02:20;;;;;;;;;;;;;;;15.52;65.08;99621.31;4951465;29;19926;-76
2023/10/22 01:04:46;;;;;;;;;;;;;;;15.51;64.88;99625.16;4941922;29;19974;-76
2023/10/22 01:07:11;;;;;;;;;;;;;;;15.51;64.83;99625.94;4941995;29;19914;-77
2023/10/22 01:09:36;;;;;;;;;;;;;;;15.50;65.03;99639.88;4939838;28;19994;-77
2023/10/22 01:12:03;;;;;;;;;;;;;;;15.50;64.99;99648.84;4956531;28;19922;-78
2023/10/22 01:14:30;;;;;;;;;;;;;;;15.53;64.89;99644.72;4940797;29;19926;-77
2023/10/22 01:16:55;;;;;;;;;;;;;;;15.51;64.99;99657.81;4937065;29;19915;-77
2023/10/22 01:19:21;;;;;;;;;;;;;;;15.50;65.06;99667.91;4954099;29;19934;-76
2023/10/22 01:21:46;;;;;;;;;;;;;;;15.49;64.83;99660.81;4947503;28;19915;-76
2023/10/22 01:24:11;;;;;;;;;;;;;;;15.51;64.81;99669.50;4959630;28;20008;-75
2023/10/22 01:26:40;;;;;;;;;;;;;;;15.51;64.73;99663.25;4943878;28;19982;-75
2023/10/22 01:29:05;;;;;;;;;;;;;;;15.52;65.11;99673.03;4954406;29;19977;-75
2023/10/22 01:31:31;;;;;;;;;;;;;;;15.52;65.03;99670.28;4949600;29;19923;-77
2023/10/22 01:33:56;;;;;;;;;;;;;;;15.53;64.99;99671.94;4952391;28;20375;-78
2023/10/22 01:36:22;;;;;;;;;;;;;;;15.51;65.15;99677.66;4954283;29;19923;-76
2023/10/22 01:38:47;;;;;;;;;;;;;;;15.52;65.07;99692.06;4969840;28;20296;-76
2023/10/22 01:41:13;;;;;;;;;;;;;;;15.51;65.13;99691.28;4943650;29;19929;-77
2023/10/22 01:43:38;;;;;;;;;;;;;;;15.51;65.27;99701.34;4954013;29;19923;-78
2023/10/22 01:46:03;;;;;;;;;;;;;;;15.51;65.28;99702.16;4970355;28;19919;-75
2023/10/22 01:48:28;;;;;;;;;;;;;;;15.53;65.17;99701.88;4945719;29;19922;-77
2023/10/22 01:50:54;;;;;;;;;;;;;;;15.52;65.18;99702.97;4935014;29;19922;-78
2023/10/22 01:53:19;;;;;;;;;;;;;;;15.52;65.14;99720.13;4948454;29;20438;-76
2023/10/22 01:55:44;;;;;;;;;;;;;;;15.50;64.99;99708.72;4945684;28;19919;-76
2023/10/22 01:58:09;;;;;;;;;;;;;;;15.50;65.32;99722.31;4947946;29;20326;-77
2023/10/22 02:00:35;;;;;;;;;;;;;;;15.49;65.08;99722.63;4940881;28;19919;-76
2023/10/22 02:03:00;;;;;;;;;;;;;;;15.50;64.99;99719.59;4937788;29;19927;-75
2023/10/22 02:05:25;;;;;;;;;;;;;;;15.50;65.02;99738.66;4948235;28;19919;-76
2023/10/22 02:07:51;;;;;;;;;;;;;;;15.50;65.25;99738.66;4954756;28;19923;-76
2023/10/22 02:10:16;;;;;;;;;;;;;;;15.49;65.28;99747.91;4941815;29;19922;-76
2023/10/22 02:12:41;;;;;;;;;;;;;;;15.49;65.00;99750.63;4950451;28;20351;-78
2023/10/22 02:15:07;;;;;;;;;;;;;;;15.51;65.23;99761.22;4945140;29;19970;-78
2023/10/22 02:17:32;;;;;;;;;;;;;;;15.50;65.28;99770.50;4935652;29;19922;-75
2023/10/22 02:19:57;;;;;;;;;;;;;;;15.49;65.38;99768.88;4949230;29;20217;-77
2023/10/22 02:22:23;;;;;;;;;;;;;;;15.49;65.10;99780.56;4936357;29;19931;-78
2023/10/22 02:24:48;;;;;;;;;;;;;;;15.50;65.12;99767.78;4943170;29;20021;-79
2023/10/22 02:27:13;;;;;;;;;;;;;;;15.48;65.27;99778.97;4954773;29;19922;-78
2023/10/22 02:29:39;;;;;;;;;;;;;;;15.49;65.26;99779.78;4967819;28;19922;-79
2023/10/22 02:32:04;;;;;;;;;;;;;;;15.50;65.13;99786.84;4937341;29;20348;-78
2023/10/22 02:34:30;;;;;;;;;;;;;;;15.49;65.19;99786.00;4953140;29;19926;-75
2023/10/22 02:36:55;;;;;;;;;;;;;;;15.50;65.17;99789.56;4943529;29;20013;-78
2023/10/22 02:39:21;;;;;;;;;;;;;;;15.51;64.87;99796.63;4938732;29;20315;-78
2023/10/22 02:41:46;;;;;;;;;;;;;;;15.50;65.11;99803.97;4945818;28;20030;-77
2023/10/22 02:44:11;;;;;;;;;;;;;;;15.49;65.08;99802.34;4953137;29;19918;-78
2023/10/22 02:46:36;;;;;;;;;;;;;;;15.48;64.97;99805.38;4947038;28;20364;-78
2023/10/22 02:49:03;;;;;;;;;;;;;;;15.47;65.20;99807.31;4949871;28;20426;-77
2023/10/22 02:51:28;;;;;;;;;;;;;;;15.46;65.11;99815.75;4947014;29;19918;-79
2023/10/22 02:53:54;;;;;;;;;;;;;;;15.46;65.30;99832.09;4953854;29;20266;-75
2023/10/22 02:56:19;;;;;;;;;;;;;;;15.46;64.94;99843.78;4952771;29;19929;-75
2023/10/22 02:58:44;;;;;;;;;;;;;;;15.46;65.06;99849.22;4953023;29;20471;-76
2023/10/22 03:01:10;;;;;;;;;;;;;;;15.46;65.07;99846.50;4950930;28;20287;-78
2023/10/22 03:03:39;;;;;;;;;;;;;;;15.44;65.33;99856.84;4952503;29;20012;-75
2023/10/22 03:06:11;;;;;;;;;;;;;;;15.45;65.11;99857.69;4953780;28;19923;-75
2023/10/22 03:08:37;;;;;;;;;;;;;;;15.46;65.27;99868.25;4949206;28;19915;-76
2023/10/22 03:11:04;;;;;;;;;;;;;;;15.47;65.02;99871.78;4940997;29;20204;-75
2023/10/22 03:13:30;;;;;;;;;;;;;;;15.47;65.29;99885.41;4952740;29;19922;-76
2023/10/22 03:15:55;;;;;;;;;;;;;;;15.47;65.01;99882.66;4953414;28;19929;-76
2023/10/22 03:18:22;;;;;;;;;;;;;;;15.46;65.23;99890.03;4934417;29;20394;-76
2023/10/22 03:20:47;;;;;;;;;;;;;;;15.46;65.07;99892.75;4949527;28;19919;-75
2023/10/22 03:23:12;;;;;;;;;;;;;;;15.47;65.21;99901.72;4949257;29;19926;-75
2023/10/22 03:25:39;;;;;;;;;;;;;;;15.46;65.20;99903.63;4935397;29;20358;-75
2023/10/22 03:28:04;;;;;;;;;;;;;;;15.45;65.11;99904.75;4960752;28;20514;-75
2023/10/22 03:30:29;;;;;;;;;;;;;;;15.44;65.18;99919.44;4935798;29;20017;-75
2023/10/22 03:32:55;;;;;;;;;;;;;;;15.44;65.01;99921.38;4942701;29;19965;-75
2023/10/22 03:35:21;;;;;;;;;;;;;;;15.43;64.95;99926.00;4949853;28;19927;-75
2023/10/22 03:37:46;;;;;;;;;;;;;;;15.45;65.16;99933.91;4940869;29;19969;-77
2023/10/22 03:40:11;;;;;;;;;;;;;;;15.45;64.84;99936.63;4945446;28;20260;-76
2023/10/22 03:42:37;;;;;;;;;;;;;;;15.46;64.71;99939.03;4953510;28;19953;-76
2023/10/22 03:45:02;;;;;;;;;;;;;;;15.48;64.69;99946.91;4955728;28;20339;-76
2023/10/22 03:47:27;;;;;;;;;;;;;;;15.47;64.86;99948.81;4937319;28;19925;-76
2023/10/22 03:49:52;;;;;;;;;;;;;;;15.47;64.66;99954.25;4948766;28;19923;-76
2023/10/22 03:52:18;;;;;;;;;;;;;;;15.48;64.77;99961.31;4935183;29;20327;-77
2023/10/22 03:54:43;;;;;;;;;;;;;;;15.47;64.91;99973.31;4922636;29;19923;-75
2023/10/22 03:57:09;;;;;;;;;;;;;;;15.47;64.96;99977.94;4949042;28;20384;-76
2023/10/22 03:59:34;;;;;;;;;;;;;;;15.48;65.00;99980.38;4947959;29;19929;-76
2023/10/22 04:02:00;;;;;;;;;;;;;;;15.48;64.65;99993.19;4943793;28;20274;-76
2023/10/22 04:04:25;;;;;;;;;;;;;;;15.47;64.66;99986.94;4951839;29;19953;-75
2023/10/22 04:06:51;;;;;;;;;;;;;;;15.47;64.83;99994.25;4951421;28;19918;-76
2023/10/22 04:09:16;;;;;;;;;;;;;;;15.47;64.61;100002.41;4948573;29;19974;-76
2023/10/22 04:11:41;;;;;;;;;;;;;;;15.47;64.59;100008.69;4947107;28;20427;-76
2023/10/22 04:14:07;;;;;;;;;;;;;;;15.48;64.79;100006.78;4941812;29;19922;-75
2023/10/22 04:16:33;;;;;;;;;;;;;;;15.48;64.96;100006.78;4939368;28;19919;-76
2023/10/22 04:18:58;;;;;;;;;;;;;;;15.49;64.52;100013.84;4950870;29;19975;-76
2023/10/22 04:21:23;;;;;;;;;;;;;;;15.48;64.61;100013.03;4951177;29;19927;-76
2023/10/22 04:23:50;;;;;;;;;;;;;;;15.48;64.79;100013.03;4951032;28;20351;-76
2023/10/22 04:26:16;;;;;;;;;;;;;;;15.47;64.58;100022.31;4940519;28;20371;-77
2023/10/22 04:28:45;;;;;;;;;;;;;;;15.48;64.46;100032.06;4956331;28;20014;-76
2023/10/22 04:31:10;;;;;;;;;;;;;;;15.48;64.47;100034.81;4942022;28;19926;-76
2023/10/22 04:33:36;;;;;;;;;;;;;;;15.47;64.70;100033.19;4955619;29;20014;-76
2023/10/22 04:36:01;;;;;;;;;;;;;;;15.47;64.64;100038.63;4942880;29;19998;-76
2023/10/22 04:38:27;;;;;;;;;;;;;;;15.47;64.84;100045.97;4948479;29;19914;-76
2023/10/22 04:40:52;;;;;;;;;;;;;;;15.47;64.69;100043.25;4944365;28;19945;-77
2023/10/22 04:43:17;;;;;;;;;;;;;;;15.47;64.80;100049.53;4971193;28;20292;-79
2023/10/22 04:45:46;;;;;;;;;;;;;;;15.47;64.37;100054.97;4945468;28;19970;-76
2023/10/22 04:48:11;;;;;;;;;;;;;;;15.47;64.75;100060.41;4956772;28;20024;-76
2023/10/22 04:50:37;;;;;;;;;;;;;;;15.46;64.76;100066.94;4943885;29;19966;-77
2023/10/22 04:53:03;;;;;;;;;;;;;;;15.46;64.36;100072.38;4943613;29;19969;-76
2023/10/22 04:55:28;;;;;;;;;;;;;;;15.46;64.55;100079.75;4942370;28;19927;-76
2023/10/22 04:57:55;;;;;;;;;;;;;;;15.45;64.40;100086.31;4937534;29;19919;-78
2023/10/22 05:00:21;;;;;;;;;;;;;;;15.45;64.63;100081.66;4955771;28;19923;-78
2023/10/22 05:02:46;;;;;;;;;;;;;;;15.44;64.64;100090.09;4938072;29;19942;-77
2023/10/22 05:05:11;;;;;;;;;;;;;;;15.45;64.38;100083.56;4950890;29;20013;-79
2023/10/22 05:07:37;;;;;;;;;;;;;;;15.45;64.67;100100.72;4937571;29;19922;-75
2023/10/22 05:10:02;;;;;;;;;;;;;;;15.44;64.61;100095.53;4948890;29;19918;-76
2023/10/22 05:12:27;;;;;;;;;;;;;;;15.42;64.32;100104.03;4957290;28;19922;-76
2023/10/22 05:14:53;;;;;;;;;;;;;;;15.41;64.32;100105.09;4960269;28;19933;-76
2023/10/22 05:17:18;;;;;;;;;;;;;;;15.43;64.59;100115.72;4951521;29;19925;-79
2023/10/22 05:19:43;;;;;;;;;;;;;;;15.41;64.38;100112.47;4943092;29;20298;-79
2023/10/22 05:22:09;;;;;;;;;;;;;;;15.40;64.48;100111.66;4951422;28;19914;-79
2023/10/22 05:24:34;;;;;;;;;;;;;;;15.40;64.64;100113.56;4951971;28;19926;-78
2023/10/22 05:26:59;;;;;;;;;;;;;;;15.39;64.39;100112.75;4953094;29;20290;-79
2023/10/22 05:29:25;;;;;;;;;;;;;;;15.38;64.42;100119.28;4951810;28;19919;-78
2023/10/22 05:31:50;;;;;;;;;;;;;;;15.38;64.60;100123.94;4949397;29;20017;-78
2023/10/22 05:34:15;;;;;;;;;;;;;;;15.36;64.64;100125.03;4937371;28;20430;-78
2023/10/22 05:36:41;;;;;;;;;;;;;;;15.36;64.27;100125.03;4959283;28;20026;-78
2023/10/22 05:39:07;;;;;;;;;;;;;;;15.35;64.54;100128.84;4936346;29;19926;-78
2023/10/22 05:41:32;;;;;;;;;;;;;;;15.35;64.22;100136.22;4944439;29;19927;-78
2023/10/22 05:44:01;;;;;;;;;;;;;;;15.32;64.14;100140.31;4936588;29;19997;-78
2023/10/22 05:46:35;;;;;;;;;;;;;;;15.33;64.50;100141.13;4954421;29;19977;-77
2023/10/22 05:49:03;;;;;;;;;;;;;;;15.31;64.50;100148.75;4970256;28;19925;-76
2023/10/22 05:51:28;;;;;;;;;;;;;;;15.31;64.29;100155.00;4955196;28;19966;-76
2023/10/22 05:53:53;;;;;;;;;;;;;;;15.30;64.54;100153.41;4939046;29;19961;-76
2023/10/22 05:56:20;;;;;;;;;;;;;;;15.30;64.11;100164.28;4953916;28;20032;-76
2023/10/22 05:58:46;;;;;;;;;;;;;;;15.29;64.37;100159.13;4951278;29;20021;-76
2023/10/22 06:01:11;;;;;;;;;;;;;;;15.27;64.39;100164.03;4943319;29;19968;-77
2023/10/22 06:03:36;;;;;;;;;;;;;;;15.26;64.30;100165.94;4955472;29;20255;-76
2023/10/22 06:06:02;;;;;;;;;;;;;;;15.25;64.26;100171.69;4953242;29;20034;-77
2023/10/22 06:08:28;;;;;;;;;;;;;;;15.25;64.05;100174.41;4943901;28;19919;-77
2023/10/22 06:10:53;;;;;;;;;;;;;;;15.24;64.19;100180.94;4954022;29;19930;-76
2023/10/22 06:13:18;;;;;;;;;;;;;;;15.23;64.47;100174.69;4953348;28;19922;-76
2023/10/22 06:15:44;;;;;;;;;;;;;;;15.22;64.55;100181.25;4939503;29;19926;-76
2023/10/22 06:18:10;;;;;;;;;;;;;;;15.21;64.27;100185.03;4955190;28;19919;-77
2023/10/22 06:20:36;;;;;;;;;;;;;;;15.22;64.46;100188.56;4939847;29;20017;-76
2023/10/22 06:23:02;;;;;;;;;;;;;;;15.21;64.32;100206.00;4936277;29;19922;-79
2023/10/22 06:25:27;;;;;;;;;;;;;;;15.20;64.36;100209.84;4939331;29;20330;-76
2023/10/22 06:27:55;;;;;;;;;;;;;;;15.20;64.09;100215.28;4935860;29;19919;-77
2023/10/22 06:30:25;;;;;;;;;;;;;;;15.20;64.36;100209.84;4953377;29;19921;-76
2023/10/22 06:32:50;;;;;;;;;;;;;;;15.18;64.45;100221.00;4945344;28;19918;-76
2023/10/22 06:35:16;;;;;;;;;;;;;;;15.17;64.21;100227.53;4941060;29;20396;-76
2023/10/22 06:37:41;;;;;;;;;;;;;;;15.14;64.17;100242.53;4954307;29;19926;-76
2023/10/22 06:40:07;;;;;;;;;;;;;;;15.14;64.21;100256.13;4947327;29;20331;-76
2023/10/22 06:42:33;;;;;;;;;;;;;;;15.15;64.43;100259.66;4945623;29;19933;-76
2023/10/22 06:44:58;;;;;;;;;;;;;;;15.14;64.19;100263.44;4943524;29;19923;-79
2023/10/22 06:47:24;;;;;;;;;;;;;;;15.13;64.37;100267.28;4937847;29;19933;-76
2023/10/22 06:49:49;;;;;;;;;;;;;;;15.12;64.20;100273.84;4936123;28;20017;-76
2023/10/22 06:52:14;;;;;;;;;;;;;;;15.12;64.30;100279.28;4943955;29;19926;-77
2023/10/22 06:54:39;;;;;;;;;;;;;;;15.10;64.27;100279.53;4953303;29;20382;-79
2023/10/22 06:57:05;;;;;;;;;;;;;;;15.09;64.11;100283.38;4952810;29;19918;-75
2023/10/22 06:59:31;;;;;;;;;;;;;;;15.08;64.50;100283.66;4953861;28;19945;-76
2023/10/22 07:01:56;;;;;;;;;;;;;;;15.09;64.09;100293.41;4939575;29;20304;-75
2023/10/22 07:04:22;;;;;;;;;;;;;;;15.07;64.46;100296.44;4952075;29;19922;-76
2023/10/22 07:06:47;;;;;;;;;;;;;;;15.07;64.11;100298.34;4954145;28;19918;-76
2023/10/22 07:09:12;;;;;;;;;;;;;;;15.06;64.23;100310.31;4952008;29;19950;-77
2023/10/22 07:11:38;;;;;;;;;;;;;;;15.06;64.07;100307.59;4926170;29;19929;-75
2023/10/22 07:14:04;;;;;;;;;;;;;;;15.03;64.25;100314.41;4940896;29;19918;-76
2023/10/22 07:16:30;;;;;;;;;;;;;;;15.03;64.11;100317.13;4950431;28;19929;-75
2023/10/22 07:18:55;;;;;;;;;;;;;;;15.03;64.19;100319.84;4934983;29;19937;-75
2023/10/22 07:21:20;;;;;;;;;;;;;;;15.03;64.45;100329.94;4953316;28;19923;-76
2023/10/22 07:23:46;;;;;;;;;;;;;;;15.02;64.04;100326.41;4953605;28;19925;-76
2023/10/22 07:26:11;;;;;;;;;;;;;;;15.01;64.04;100324.75;4967640;28;19944;-76
2023/10/22 07:28:41;;;;;;;;;;;;;;;15.01;64.11;100332.91;4952065;29;19922;-76
2023/10/22 07:31:06;;;;;;;;;;;;;;;15.00;64.35;100330.50;4936811;29;19923;-76
2023/10/22 07:33:31;;;;;;;;;;;;;;;14.99;64.29;100347.88;4942024;29;20335;-76
2023/10/22 07:35:58;;;;;;;;;;;;;;;14.98;64.20;100351.72;4948827;28;19966;-76
2023/10/22 07:38:24;;;;;;;;;;;;;;;14.98;63.99;100355.25;4937837;29;19914;-78
2023/10/22 07:40:50;;;;;;;;;;;;;;;14.96;64.28;100360.16;4953776;28;19927;-76
2023/10/22 07:43:16;;;;;;;;;;;;;;;14.96;64.43;100367.50;4952852;28;19915;-78
2023/10/22 07:45:41;;;;;;;;;;;;;;;14.95;64.38;100377.56;4949959;29;19918;-76
2023/10/22 07:48:06;;;;;;;;;;;;;;;14.95;64.16;100380.28;4935771;29;20351;-76
2023/10/22 07:50:31;;;;;;;;;;;;;;;14.95;64.44;100384.91;4958822;28;19922;-78
2023/10/22 07:52:57;;;;;;;;;;;;;;;14.93;64.47;100391.44;4949808;29;19922;-78
2023/10/22 07:55:22;;;;;;;;;;;;;;;14.94;64.13;100384.09;4951484;29;20025;-76
2023/10/22 07:57:47;;;;;;;;;;;;;;;14.92;64.10;100391.75;4968041;28;20272;-77
2023/10/22 08:00:14;;;;;;;;;;;;;;;14.92;64.19;100394.44;4946911;28;19974;-77
2023/10/22 08:02:39;;;;;;;;;;;;;;;14.91;64.57;100381.94;4953539;28;20013;-78
2023/10/22 08:05:04;;;;;;;;;;;;;;;14.89;64.60;100384.94;4952993;28;20009;-77
2023/10/22 08:07:30;;;;;;;;;;;;;;;14.90;64.19;100394.72;4967708;28;19918;-77
2023/10/22 08:09:55;;;;;;;;;;;;;;;14.90;64.52;100394.72;4959978;28;19922;-78
2023/10/22 08:12:20;;;;;;;;;;;;;;;14.90;64.26;100400.16;4953076;28;20363;-77
2023/10/22 08:14:45;;;;;;;;;;;;;;;14.90;64.56;100399.34;4938720;29;19918;-77
2023/10/22 08:17:11;;;;;;;;;;;;;;;14.89;64.29;100401.25;4944761;29;19930;-77
2023/10/22 08:19:36;;;;;;;;;;;;;;;14.89;64.30;100403.16;4952653;29;19957;-77
2023/10/22 08:22:01;;;;;;;;;;;;;;;14.90;64.66;100410.22;4938470;29;20362;-78
2023/10/22 08:24:27;;;;;;;;;;;;;;;14.89;64.70;100408.59;4949064;29;19922;-78
2023/10/22 08:26:53;;;;;;;;;;;;;;;14.88;64.59;100424.09;4943954;28;20240;-78
2023/10/22 08:29:18;;;;;;;;;;;;;;;14.88;64.59;100415.13;4959341;28;19934;-78
2023/10/22 08:31:44;;;;;;;;;;;;;;;14.87;64.84;100417.03;4956937;28;20050;-77
2023/10/22 08:34:09;;;;;;;;;;;;;;;14.87;64.80;100421.69;4955605;29;19923;-77
2023/10/22 08:36:35;;;;;;;;;;;;;;;14.87;64.50;100427.13;4955734;29;19991;-76
2023/10/22 08:39:00;;;;;;;;;;;;;;;14.87;64.58;100421.69;4971279;28;19918;-79
2023/10/22 08:41:31;;;;;;;;;;;;;;;14.87;64.81;100427.13;4950258;29;19919;-77
2023/10/22 08:43:58;;;;;;;;;;;;;;;14.88;64.80;100429.53;4938123;29;20014;-78
2023/10/22 08:46:23;;;;;;;;;;;;;;;14.88;64.79;100437.69;4954840;29;19918;-79
2023/10/22 08:48:50;;;;;;;;;;;;;;;14.89;64.83;100433.06;4953670;28;19914;-78
2023/10/22 08:51:17;;;;;;;;;;;;;;;14.89;64.55;100436.63;4954749;29;20021;-81
2023/10/22 08:53:43;;;;;;;;;;;;;;;14.89;64.58;100450.22;4953376;28;20378;-79
2023/10/22 08:56:08;;;;;;;;;;;;;;;14.90;64.47;100454.56;4955636;29;19919;-79
2023/10/22 08:58:34;;;;;;;;;;;;;;;14.91;64.76;100461.59;4970555;28;19922;-79
2023/10/22 09:00:59;;;;;;;;;;;;;;;14.92;64.81;100457.00;4948332;28;20286;-78
2023/10/22 09:03:25;;;;;;;;;;;;;;;14.92;64.79;100460.53;4951198;29;19926;-78
2023/10/22 09:05:51;;;;;;;;;;;;;;;14.94;64.59;100471.13;4948336;29;19926;-77
2023/10/22 09:08:16;;;;;;;;;;;;;;;14.94;64.84;100476.56;4951934;29;19922;-78
2023/10/22 09:10:42;;;;;;;;;;;;;;;14.95;64.58;100472.75;4952776;28;20367;-78
2023/10/22 09:13:07;;;;;;;;;;;;;;;14.96;64.45;100465.41;4934467;29;20367;-80
2023/10/22 09:15:38;;;;;;;;;;;;;;;14.96;64.78;100474.38;4950865;29;19918;-77
2023/10/22 09:18:04;;;;;;;;;;;;;;;14.98;64.72;100482.28;4950866;29;19973;-79
2023/10/22 09:20:34;;;;;;;;;;;;;;;14.98;64.66;100479.53;4960922;28;19923;-79
2023/10/22 09:23:18;;;;;;;;;;;;;;;14.98;64.66;100480.34;4966027;28;19922;-78
2023/10/22 09:25:44;;;;;;;;;;;;;;;14.97;64.67;100486.91;4950900;28;19918;-79
2023/10/22 09:28:13;;;;;;;;;;;;;;;14.98;64.65;100485.00;4953495;29;19985;-80
2023/10/22 09:30:38;;;;;;;;;;;;;;;14.98;65.02;100485.78;4952840;29;19973;-79
2023/10/22 09:33:03;;;;;;;;;;;;;;;15.01;64.63;100489.88;4954982;29;19923;-82
2023/10/22 09:35:29;;;;;;;;;;;;;;;15.00;64.92;100497.22;4954461;28;20028;-81
2023/10/22 09:37:58;;;;;;;;;;;;;;;15.00;64.79;100496.41;4946819;29;19930;-84
2023/10/22 09:40:23;;;;;;;;;;;;;;;15.00;65.13;100502.66;4930286;29;20290;-79
2023/10/22 09:42:50;;;;;;;;;;;;;;;15.01;65.23;100501.56;4954304;29;19922;-80
2023/10/22 09:45:17;;;;;;;;;;;;;;;15.02;64.83;100500.47;4953562;29;19944;-80
2023/10/22 09:47:43;;;;;;;;;;;;;;;15.04;64.90;100506.44;4946690;29;20432;-81
2023/10/22 09:50:08;;;;;;;;;;;;;;;15.06;65.03;100508.88;4953917;29;19929;-82
2023/10/22 09:52:35;;;;;;;;;;;;;;;15.06;64.71;100506.97;4942822;29;19974;-83
2023/10/22 09:55:02;;;;;;;;;;;;;;;15.08;64.60;100510.22;4936763;29;19915;-81
2023/10/22 09:57:32;;;;;;;;;;;;;;;15.09;64.77;100517.31;4943169;28;19974;-82
2023/10/22 10:00:01;;;;;;;;;;;;;;;15.10;64.68;100508.06;4952724;28;19926;-82
2023/10/22 10:02:27;;;;;;;;;;;;;;;15.11;64.83;100515.09;4966583;28;20013;-83
2023/10/22 10:04:54;;;;;;;;;;;;;;;15.13;64.70;100523.00;4966564;28;20045;-82
2023/10/22 10:07:23;;;;;;;;;;;;;;;15.11;64.66;100523.28;4952593;29;19937;-82
2023/10/22 10:09:49;;;;;;;;;;;;;;;15.14;64.65;100522.75;4936499;29;19954;-82
2023/10/22 10:12:16;;;;;;;;;;;;;;;15.16;64.98;100522.44;4947807;29;19961;-82
2023/10/22 10:14:42;;;;;;;;;;;;;;;15.19;65.13;100526.50;4943963;29;19914;-82
2023/10/22 10:17:08;;;;;;;;;;;;;;;15.19;65.04;100540.13;4959444;28;19921;-82
2023/10/22 10:19:33;;;;;;;;;;;;;;;15.20;64.96;100536.31;4955495;29;19922;-82
2023/10/22 10:21:58;;;;;;;;;;;;;;;15.20;65.05;100539.84;4957189;29;19919;-81
2023/10/22 10:24:25;;;;;;;;;;;;;;;15.21;64.95;100540.66;4959216;28;20234;-82
2023/10/22 10:26:52;;;;;;;;;;;;;;;15.21;64.65;100552.34;4956360;29;19915;-82
2023/10/22 10:29:21;;;;;;;;;;;;;;;15.22;64.71;100551.28;4953935;29;19918;-83
2023/10/22 10:31:51;;;;;;;;;;;;;;;15.23;64.90;100552.88;4944731;28;19923;-83
2023/10/22 10:34:32;;;;;;;;;;;;;;;15.25;64.78;100558.06;4954590;29;19926;-83
2023/10/22 10:37:08;;;;;;;;;;;;;;;15.25;65.10;100558.88;4954577;29;20019;-82
2023/10/22 10:39:52;;;;;;;;;;;;;;;15.26;64.80;100552.31;4970004;28;20260;-84
2023/10/22 10:42:30;;;;;;;;;;;;;;;15.28;64.90;100555.59;4953736;29;19918;-79
2023/10/22 10:44:55;;;;;;;;;;;;;;;15.30;65.00;100558.84;4953860;28;20186;-80
2023/10/22 10:47:21;;;;;;;;;;;;;;;15.32;64.82;100556.66;4968858;28;20283;-81
2023/10/22 10:49:49;;;;;;;;;;;;;;;15.32;64.65;100566.72;4949600;28;19982;-80
2023/10/22 10:52:14;;;;;;;;;;;;;;;15.33;64.92;100571.09;4946249;29;20263;-81
2023/10/22 10:54:39;;;;;;;;;;;;;;;15.32;64.67;100567.56;4964466;28;20458;-81
2023/10/22 10:57:05;;;;;;;;;;;;;;;15.34;64.78;100559.09;4946538;29;20024;-81
2023/10/22 10:59:31;;;;;;;;;;;;;;;15.34;64.66;100573.50;4952950;28;19945;-80
2023/10/22 11:02:04;;;;;;;;;;;;;;;15.38;64.59;100578.41;4941495;28;20014;-79
2023/10/22 11:04:30;;;;;;;;;;;;;;;15.37;64.64;100583.03;4950123;29;21038;-81
2023/10/22 11:06:56;;;;;;;;;;;;;;;15.39;64.84;100580.84;4947971;28;20016;-80
2023/10/22 11:09:21;;;;;;;;;;;;;;;15.40;64.80;100581.69;4953084;29;19921;-80
2023/10/22 11:11:56;;;;;;;;;;;;;;;15.41;64.68;100586.03;4953674;29;19918;-81
2023/10/22 11:14:22;;;;;;;;;;;;;;;15.40;64.82;100585.22;4939063;28;19921;-80
2023/10/22 11:16:55;;;;;;;;;;;;;;;15.40;64.89;100581.69;4951787;28;20009;-80
2023/10/22 11:19:24;;;;;;;;;;;;;;;15.39;64.63;100591.72;4951109;29;20340;-77
2023/10/22 11:21:49;;;;;;;;;;;;;;;15.39;64.33;100586.28;4945116;29;20017;-79
2023/10/22 11:24:15;;;;;;;;;;;;;;;15.38;64.87;100590.13;4954367;28;20353;-79
2023/10/22 11:26:40;;;;;;;;;;;;;;;15.37;64.64;100580.31;4957886;28;20376;-78
2023/10/22 11:29:06;;;;;;;;;;;;;;;15.39;64.85;100596.38;4952761;29;19930;-78
2023/10/22 11:31:31;;;;;;;;;;;;;;;15.40;64.56;100589.84;4965041;28;20351;-78
2023/10/22 11:34:11;;;;;;;;;;;;;;;15.42;64.70;100601.25;4948620;29;20022;-77
2023/10/22 11:36:38;;;;;;;;;;;;;;;15.42;64.55;100602.09;4965280;28;19918;-77
2023/10/22 11:39:13;;;;;;;;;;;;;;;15.46;64.70;100610.50;4950702;29;20389;-78
2023/10/22 11:41:39;;;;;;;;;;;;;;;15.45;64.80;100606.97;4948117;29;19972;-79
2023/10/22 11:44:04;;;;;;;;;;;;;;;15.47;64.80;100604.78;4940905;29;20366;-80
2023/10/22 11:46:40;;;;;;;;;;;;;;;15.48;64.63;100600.97;4954267;28;19926;-79
2023/10/22 11:49:05;;;;;;;;;;;;;;;15.49;64.90;100601.78;4942587;29;19958;-80
2023/10/22 11:51:40;;;;;;;;;;;;;;;15.50;64.47;100604.22;4944635;28;19961;-77
2023/10/22 11:54:06;;;;;;;;;;;;;;;15.52;64.86;100602.03;4947214;29;20363;-79
2023/10/22 11:56:31;;;;;;;;;;;;;;;15.53;64.64;100613.75;4944516;28;19985;-78
2023/10/22 11:58:56;;;;;;;;;;;;;;;15.55;64.46;100615.09;4932909;29;19990;-79
2023/10/22 12:01:22;;;;;;;;;;;;;;;15.56;64.50;100619.44;4950071;29;19926;-79
2023/10/22 12:03:47;;;;;;;;;;;;;;;15.56;64.50;100615.91;4949369;29;19922;-79
2023/10/22 12:06:12;;;;;;;;;;;;;;;15.57;64.82;100615.63;4944158;29;19973;-79
2023/10/22 12:08:38;;;;;;;;;;;;;;;15.58;64.61;100628.13;4955143;28;19930;-80
2023/10/22 12:11:03;;;;;;;;;;;;;;;15.57;64.69;100623.81;4943962;29;19946;-78
2023/10/22 12:13:28;;;;;;;;;;;;;;;15.58;64.62;100635.50;4946492;29;19929;-80
2023/10/22 12:15:53;;;;;;;;;;;;;;;15.60;64.76;100630.59;4935042;29;20286;-78
2023/10/22 12:18:19;;;;;;;;;;;;;;;15.61;64.75;100634.13;4965263;28;20029;-79
2023/10/22 12:20:44;;;;;;;;;;;;;;;15.61;64.64;100634.13;4942737;29;19958;-78
2023/10/22 12:23:11;;;;;;;;;;;;;;;15.61;64.49;100642.28;4950621;29;19932;-78
2023/10/22 12:25:36;;;;;;;;;;;;;;;15.61;64.37;100648.53;4939252;29;19922;-80
2023/10/22 12:28:02;;;;;;;;;;;;;;;15.61;64.57;100654.00;4940556;29;19937;-79
2023/10/22 12:30:27;;;;;;;;;;;;;;;15.62;64.83;100654.81;4921391;29;20351;-79
2023/10/22 12:32:53;;;;;;;;;;;;;;;15.63;64.40;100648.28;4942468;29;19926;-80
2023/10/22 12:35:18;;;;;;;;;;;;;;;15.64;64.70;100658.88;4951173;28;19969;-78